createdAt,value
2022-12-25T00:01:32.356Z,101347.66
2022-12-25T00:03:59.536Z,101353.91
2022-12-25T00:06:27.263Z,101349.25
2022-12-25T00:08:54.080Z,101355.44
2022-12-25T00:11:21.306Z,101352.94
2022-12-25T00:13:49.092Z,101354.16
2022-12-25T00:16:19.983Z,101363.69
2022-12-25T00:18:47.893Z,101376.38
2022-12-25T00:21:16.286Z,101373.88
2022-12-25T00:23:43.438Z,101376.56
2022-12-25T00:26:13.519Z,101379.03
2022-12-25T00:28:40.695Z,101381.94
2022-12-25T00:31:12.421Z,101382.28
2022-12-25T00:33:41.704Z,101378.09
2022-12-25T00:36:10.171Z,101387.28
2022-12-25T00:38:39.120Z,101375.53
2022-12-25T00:41:18.890Z,101382.97
2022-12-25T00:43:45.716Z,101374.25
2022-12-25T00:46:13.897Z,101378.78
2022-12-25T00:48:42.081Z,101379.75
2022-12-25T00:51:12.368Z,101368.66
2022-12-25T00:53:39.988Z,101363.25
2022-12-25T00:56:08.035Z,101357.38
2022-12-25T00:58:36.764Z,101351.53
2022-12-25T01:01:04.470Z,101357.31
2022-12-25T01:03:31.689Z,101360.41
2022-12-25T01:06:01.077Z,101370.28
2022-12-25T01:08:30.504Z,101362.16
2022-12-25T01:11:02.227Z,101372.53
2022-12-25T01:13:32.959Z,101380.56
2022-12-25T01:15:59.957Z,101367.22
2022-12-25T01:18:27.123Z,101369.75
2022-12-25T01:20:54.049Z,101376.81
2022-12-25T01:23:20.941Z,101377.38
2022-12-25T01:25:47.948Z,101396.78
2022-12-25T01:28:16.690Z,101401.56
2022-12-25T01:30:50.898Z,101407.13
2022-12-25T01:33:18.467Z,101402.28
2022-12-25T01:35:48.301Z,101406.41
2022-12-25T01:38:15.457Z,101418.53
2022-12-25T01:40:42.613Z,101415.44
2022-12-25T01:43:26.901Z,101423.53
2022-12-25T01:45:54.270Z,101426.91
2022-12-25T01:48:29.374Z,101423.28
2022-12-25T01:51:02.097Z,101430.25
2022-12-25T01:53:30.056Z,101432.31
2022-12-25T01:56:07.337Z,101437.91
2022-12-25T01:58:35.081Z,101430.25
2022-12-25T02:01:02.230Z,101431.00
2022-12-25T02:03:29.388Z,101434.75
2022-12-25T02:05:57.179Z,101424.66
2022-12-25T02:08:24.528Z,101419.63
2022-12-25T02:10:51.507Z,101435.84
2022-12-25T02:13:20.649Z,101432.50
2022-12-25T02:16:08.682Z,101435.84
2022-12-25T02:18:52.101Z,101439.09
2022-12-25T02:21:22.009Z,101437.41
2022-12-25T02:23:57.918Z,101432.00
2022-12-25T02:27:03.231Z,101428.09
2022-12-25T02:29:57.717Z,101443.56
2022-12-25T02:32:32.861Z,101449.16
2022-12-25T02:35:13.157Z,101440.75
2022-12-25T02:38:03.945Z,101436.03
2022-12-25T02:40:44.770Z,101439.38
2022-12-25T02:43:41.947Z,101435.66
2022-12-25T02:46:34.753Z,101441.44
2022-12-25T02:49:24.496Z,101419.06
2022-12-25T02:52:16.375Z,101417.75
2022-12-25T02:55:12.126Z,101426.22
2022-12-25T02:58:03.573Z,101430.63
2022-12-25T03:00:54.109Z,101434.06
2022-12-25T03:03:43.427Z,101425.47
2022-12-25T03:06:47.217Z,101420.06
2022-12-25T03:09:40.005Z,101413.34
2022-12-25T03:12:29.748Z,101408.13
2022-12-25T03:15:15.058Z,101396.03
2022-12-25T03:17:42.545Z,101392.00
2022-12-25T03:20:28.786Z,101404.00
2022-12-25T03:23:15.421Z,101415.47
2022-12-25T03:26:00.712Z,101419.97
2022-12-25T03:28:27.647Z,101418.66
2022-12-25T03:31:12.799Z,101413.88
2022-12-25T03:34:30.531Z,101427.41
2022-12-25T03:37:24.634Z,101428.59
2022-12-25T03:40:29.346Z,101421.56
2022-12-25T03:43:31.507Z,101411.09
2022-12-25T03:46:22.252Z,101402.63
2022-12-25T03:49:14.681Z,101403.19
2022-12-25T03:52:02.038Z,101398.44
2022-12-25T03:54:52.244Z,101403.66
2022-12-25T03:57:37.449Z,101399.06
2022-12-25T04:00:23.318Z,101387.72
2022-12-25T04:03:08.919Z,101387.53
2022-12-25T04:05:54.306Z,101378.41
2022-12-25T04:08:39.767Z,101371.88
2022-12-25T04:11:25.122Z,101372.06
2022-12-25T04:14:10.385Z,101362.94
2022-12-25T04:16:55.779Z,101373.50
2022-12-25T04:19:40.847Z,101371.63
2022-12-25T04:22:26.196Z,101365.19
2022-12-25T04:25:11.590Z,101355.22
2022-12-25T04:27:56.631Z,101339.84
2022-12-25T04:30:41.983Z,101350.28
2022-12-25T04:33:27.345Z,101358.66
2022-12-25T04:36:15.298Z,101350.00
2022-12-25T04:38:42.945Z,101345.81
2022-12-25T04:41:12.383Z,101348.78
2022-12-25T04:43:39.122Z,101351.78
2022-12-25T04:46:06.412Z,101354.75
2022-12-25T04:48:35.048Z,101349.44
2022-12-25T04:51:20.085Z,101352.69
2022-12-25T04:53:49.029Z,101341.00
2022-12-25T04:56:16.271Z,101336.06
2022-12-25T04:58:43.315Z,101335.06
2022-12-25T05:01:10.909Z,101337.00
2022-12-25T05:03:38.751Z,101335.38
2022-12-25T05:06:06.833Z,101333.53
2022-12-25T05:08:36.044Z,101330.66
2022-12-25T05:11:13.131Z,101330.06
2022-12-25T05:13:40.787Z,101333.22
2022-12-25T05:16:09.385Z,101329.50
2022-12-25T05:18:36.423Z,101332.38
2022-12-25T05:21:04.147Z,101338.53
2022-12-25T05:23:31.675Z,101312.97
2022-12-25T05:25:58.756Z,101311.47
2022-12-25T05:28:25.506Z,101310.69
2022-12-25T05:30:52.289Z,101306.69
2022-12-25T05:33:19.195Z,101312.09
2022-12-25T05:35:45.997Z,101312.97
2022-12-25T05:38:12.753Z,101317.50
2022-12-25T05:40:41.114Z,101317.97
2022-12-25T05:43:08.112Z,101306.22
2022-12-25T05:45:35.471Z,101305.00
2022-12-25T05:48:02.273Z,101292.97
2022-12-25T05:50:29.220Z,101297.88
2022-12-25T05:52:56.415Z,101296.13
2022-12-25T05:55:23.807Z,101306.75
2022-12-25T05:57:50.662Z,101304.25
2022-12-25T06:00:18.040Z,101295.94
2022-12-25T06:02:45.457Z,101294.72
2022-12-25T06:05:12.775Z,101290.16
2022-12-25T06:07:39.495Z,101295.56
2022-12-25T06:10:07.459Z,101294.13
2022-12-25T06:12:34.682Z,101295.09
2022-12-25T06:15:01.957Z,101300.53
2022-12-25T06:17:31.357Z,101301.81
2022-12-25T06:19:58.534Z,101314.97
2022-12-25T06:22:30.733Z,101310.56
2022-12-25T06:24:59.103Z,101310.56
2022-12-25T06:27:26.632Z,101310.94
2022-12-25T06:29:53.545Z,101313.03
2022-12-25T06:32:20.413Z,101316.34
2022-12-25T06:34:51.951Z,101325.13
2022-12-25T06:37:19.462Z,101307.66
2022-12-25T06:39:47.532Z,101316.00
2022-12-25T06:42:14.542Z,101318.91
2022-12-25T06:44:42.096Z,101327.72
2022-12-25T06:47:09.169Z,101326.41
2022-12-25T06:49:36.147Z,101318.50
2022-12-25T06:52:06.675Z,101315.78
2022-12-25T06:54:38.179Z,101317.72
2022-12-25T06:59:55.179Z,101321.09
2022-12-25T07:02:23.929Z,101319.97
2022-12-25T07:04:51.666Z,101326.41
2022-12-25T07:07:18.408Z,101337.25
2022-12-25T07:09:45.060Z,101345.63
2022-12-25T07:12:11.781Z,101350.66
2022-12-25T07:14:38.532Z,101352.16
2022-12-25T07:17:05.613Z,101356.44
2022-12-25T07:19:32.435Z,101351.50
2022-12-25T07:21:59.228Z,101351.69
2022-12-25T07:24:26.287Z,101334.63
2022-12-25T07:26:53.062Z,101343.19
2022-12-25T07:29:19.859Z,101333.00
2022-12-25T07:31:47.164Z,101333.00
2022-12-25T07:34:14.809Z,101331.84
2022-12-25T07:36:41.769Z,101328.25
2022-12-25T07:39:11.243Z,101325.53
2022-12-25T07:41:38.110Z,101327.53
2022-12-25T07:44:05.444Z,101328.31
2022-12-25T07:46:32.184Z,101322.50
2022-12-25T07:48:58.923Z,101322.28
2022-12-25T07:51:25.556Z,101322.13
2022-12-25T07:53:52.958Z,101318.19
2022-12-25T07:56:20.461Z,101320.53
2022-12-25T07:58:49.030Z,101320.28
2022-12-25T08:01:21.439Z,101316.75
2022-12-25T08:04:00.408Z,101320.09
2022-12-25T08:06:31.234Z,101314.66
2022-12-25T08:09:02.323Z,101308.47
2022-12-25T08:11:29.117Z,101306.88
2022-12-25T08:13:55.795Z,101295.84
2022-12-25T08:16:22.908Z,101286.03
2022-12-25T08:24:16.189Z,101294.00
2022-12-25T08:26:58.682Z,101292.34
2022-12-25T08:29:30.045Z,101290.25
2022-12-25T08:32:01.822Z,101294.66
2022-12-25T08:45:23.400Z,101297.09
2022-12-25T08:53:39.837Z,101303.47
2022-12-25T08:56:07.675Z,101305.28
2022-12-25T08:58:38.763Z,101307.19
2022-12-25T09:01:40.720Z,101323.25
2022-12-25T09:04:10.949Z,101317.63
2022-12-25T09:06:46.659Z,101310.34
2022-12-25T09:09:13.539Z,101310.97
2022-12-25T09:11:40.276Z,101312.63
2022-12-25T09:14:07.208Z,101318.75
2022-12-25T09:16:33.952Z,101303.09
2022-12-25T09:19:04.309Z,101313.75
2022-12-25T09:21:31.023Z,101312.69
2022-12-25T09:23:57.756Z,101321.69
2022-12-25T09:26:24.341Z,101320.69
2022-12-25T09:28:52.525Z,101321.50
2022-12-25T09:31:21.281Z,101302.56
2022-12-25T09:33:48.739Z,101307.81
2022-12-25T09:36:15.802Z,101312.00
2022-12-25T09:38:43.131Z,101312.84
2022-12-25T09:41:31.061Z,101310.34
2022-12-25T09:44:05.958Z,101317.47
2022-12-25T09:46:41.108Z,101320.81
2022-12-25T09:49:20.114Z,101314.09
2022-12-25T09:51:53.777Z,101321.22
2022-12-25T09:54:36.964Z,101313.94
2022-12-25T09:57:04.115Z,101310.34
2022-12-25T09:59:31.200Z,101315.41
2022-12-25T10:02:19.736Z,101318.59
2022-12-25T10:05:15.867Z,101329.00
2022-12-25T10:10:51.058Z,101324.16
2022-12-25T10:13:45.003Z,101324.84
2022-12-25T10:16:27.022Z,101313.13
2022-12-25T10:19:28.489Z,101307.72
2022-12-25T10:22:01.808Z,101303.97
2022-12-25T10:24:37.128Z,101304.16
2022-12-25T10:27:08.713Z,101292.47
2022-12-25T10:29:43.066Z,101289.56
2022-12-25T10:32:10.645Z,101280.41
2022-12-25T10:34:42.501Z,101273.09
2022-12-25T10:37:15.063Z,101267.69
2022-12-25T10:39:46.622Z,101272.03
2022-12-25T10:42:42.569Z,101267.06
2022-12-25T10:45:12.539Z,101262.69
2022-12-25T10:47:43.064Z,101273.72
2022-12-25T10:50:21.311Z,101259.34
2022-12-25T10:53:00.754Z,101262.69
2022-12-25T10:55:29.594Z,101263.94
2022-12-25T10:58:00.781Z,101246.19
2022-12-25T11:00:33.240Z,101247.44
2022-12-25T11:03:01.286Z,101239.31
2022-12-25T11:05:33.788Z,101232.22
2022-12-25T11:08:03.321Z,101216.97
2022-12-25T11:10:44.506Z,101215.50
2022-12-25T11:13:29.871Z,101210.50
2022-12-25T11:16:14.826Z,101211.94
2022-12-25T11:18:52.015Z,101223.22
2022-12-25T11:21:40.932Z,101203.63
2022-12-25T11:24:21.914Z,101194.44
2022-12-25T11:26:53.619Z,101208.00
2022-12-25T11:30:00.692Z,101200.66
2022-12-25T11:32:38.260Z,101202.53
2022-12-25T11:35:14.242Z,101189.59
2022-12-25T11:38:01.106Z,101204.44
2022-12-25T11:43:47.072Z,101203.59
2022-12-25T11:46:24.296Z,101192.94
2022-12-25T11:49:00.433Z,101191.91
2022-12-25T11:51:33.425Z,101193.16
2022-12-25T11:54:24.017Z,101205.25
2022-12-25T11:56:51.265Z,101205.47
2022-12-25T11:59:27.489Z,101193.56
2022-12-25T12:01:54.409Z,101199.19
2022-12-25T12:04:40.274Z,101202.72
2022-12-25T12:07:19.404Z,101194.59
2022-12-25T12:09:57.625Z,101203.59
2022-12-25T12:13:15.227Z,101199.44
2022-12-25T12:21:36.365Z,101182.88
2022-12-25T12:24:16.767Z,101190.81
2022-12-25T12:26:46.477Z,101183.53
2022-12-25T12:29:48.393Z,101180.13
2022-12-25T13:23:39.594Z,101097.97
2022-12-25T13:34:17.627Z,101063.00
2022-12-25T13:36:44.669Z,101067.22
2022-12-25T13:44:52.161Z,101076.84
2022-12-25T13:47:21.171Z,101067.84
2022-12-25T13:49:49.583Z,101069.34
2022-12-25T13:52:21.442Z,101072.88
2022-12-25T13:55:14.871Z,101076.84
2022-12-25T13:57:49.306Z,101069.34
2022-12-25T14:00:22.489Z,101056.78
2022-12-25T14:02:53.594Z,101069.34
2022-12-25T14:05:28.129Z,101065.13
2022-12-25T14:07:57.359Z,101060.28
2022-12-25T14:10:27.725Z,101066.34
2022-12-25T14:12:58.195Z,101074.25
2022-12-25T14:15:25.875Z,101071.97
2022-12-25T14:17:53.669Z,101067.56
2022-12-25T14:20:38.291Z,101066.31
2022-12-25T14:23:06.154Z,101056.72
2022-12-25T14:25:43.248Z,101052.06
2022-12-25T14:28:23.995Z,101041.84
2022-12-25T14:30:54.686Z,101036.19
2022-12-25T14:33:24.657Z,101043.56
2022-12-25T14:35:52.770Z,101023.50
2022-12-25T14:38:27.599Z,101020.38
2022-12-25T14:41:05.563Z,101022.88
2022-12-25T14:43:37.695Z,101025.19
2022-12-25T14:46:09.293Z,101014.56
2022-12-25T14:48:38.661Z,101024.59
2022-12-25T14:51:31.678Z,101020.59
2022-12-25T14:54:02.340Z,101002.03
2022-12-25T14:56:33.323Z,101009.53
2022-12-25T14:59:02.613Z,101004.97
2022-12-25T15:01:34.326Z,101010.41
2022-12-25T15:04:20.931Z,101015.00
2022-12-25T15:07:09.666Z,101019.19
2022-12-25T15:09:37.942Z,101025.28
2022-12-25T15:12:07.297Z,101021.28
2022-12-25T15:14:40.869Z,101019.59
2022-12-25T15:17:12.420Z,101013.34
2022-12-25T15:19:39.682Z,101007.94
2022-12-25T15:22:06.732Z,100996.25
2022-12-25T15:24:33.699Z,101000.81
2022-12-25T15:27:01.046Z,100995.84
2022-12-25T15:30:09.314Z,101004.59
2022-12-25T15:32:24.632Z,100989.75
2022-12-25T15:34:53.289Z,100980.72
2022-12-25T15:37:20.719Z,100986.22
2022-12-25T15:39:47.803Z,100972.47
2022-12-25T15:42:18.343Z,100978.53
2022-12-25T15:44:46.152Z,100973.75
2022-12-25T15:47:18.242Z,100974.13
2022-12-25T15:49:48.760Z,100972.69
2022-12-25T15:52:21.371Z,100959.97
2022-12-25T15:54:57.567Z,100953.91
2022-12-25T15:57:29.386Z,100963.31
2022-12-25T15:59:56.466Z,100963.56
2022-12-25T16:02:23.494Z,100955.22
2022-12-25T16:04:51.375Z,100961.25
2022-12-25T16:07:29.682Z,100954.34
2022-12-25T16:09:58.672Z,100954.09
2022-12-25T16:12:26.008Z,100962.06
2022-12-25T16:14:53.235Z,100961.47
2022-12-25T16:17:20.445Z,100959.16
2022-12-25T16:19:47.529Z,100942.00
2022-12-25T16:22:26.004Z,100946.66
2022-12-25T16:24:54.086Z,100951.00
2022-12-25T16:27:43.498Z,100949.31
2022-12-25T16:30:15.611Z,100941.22
2022-12-25T16:32:44.202Z,100935.75
2022-12-25T16:35:24.360Z,100928.25
2022-12-25T16:37:52.525Z,100927.47
2022-12-25T16:40:28.484Z,100919.50
2022-12-25T16:45:53.819Z,100922.66
2022-12-25T16:48:33.736Z,100908.88
2022-12-25T16:51:03.506Z,100909.31
2022-12-25T16:53:35.633Z,100898.63
2022-12-25T16:56:25.061Z,100902.84
2022-12-25T16:59:04.939Z,100900.94
2022-12-25T17:01:52.929Z,100891.81
2022-12-25T17:04:26.117Z,100896.16
2022-12-25T17:06:53.742Z,100889.88
2022-12-25T17:09:25.430Z,100885.94
2022-12-25T17:11:56.871Z,100886.28
2022-12-25T17:15:04.139Z,100893.22
2022-12-25T17:17:59.608Z,100875.69
2022-12-25T17:20:29.204Z,100872.56
2022-12-25T17:22:56.237Z,100874.44
2022-12-25T17:25:23.059Z,100880.69
2022-12-25T17:27:50.822Z,100876.09
2022-12-25T17:30:17.554Z,100864.88
2022-12-25T17:32:44.217Z,100861.56
2022-12-25T17:35:11.048Z,100865.75
2022-12-25T17:37:37.724Z,100861.09
2022-12-25T17:40:04.924Z,100856.53
2022-12-25T17:42:31.791Z,100862.34
2022-12-25T17:44:58.651Z,100851.94
2022-12-25T17:47:26.402Z,100845.06
2022-12-25T17:49:53.262Z,100848.78
2022-12-25T17:52:20.092Z,100840.63
2022-12-25T17:54:46.814Z,100841.25
2022-12-25T17:57:14.284Z,100835.03
2022-12-25T17:59:42.014Z,100835.88
2022-12-25T18:02:09.233Z,100825.88
2022-12-25T18:04:35.994Z,100823.78
2022-12-25T18:07:03.536Z,100815.25
2022-12-25T18:09:30.302Z,100824.63
2022-12-25T18:11:56.983Z,100821.91
2022-12-25T18:14:23.719Z,100816.03
2022-12-25T18:16:50.625Z,100811.63
2022-12-25T18:21:59.025Z,100801.06
2022-12-25T18:24:25.727Z,100803.31
2022-12-25T18:26:52.535Z,100812.53
2022-12-25T18:29:19.389Z,100810.69
2022-12-25T18:31:48.211Z,100807.56
2022-12-25T18:34:17.164Z,100809.03
2022-12-25T18:36:44.897Z,100801.31
2022-12-25T18:39:13.383Z,100792.28
2022-12-25T18:42:00.108Z,100783.56
2022-12-25T18:44:26.835Z,100797.28
2022-12-25T18:46:54.078Z,100787.31
2022-12-25T18:49:21.343Z,100779.16
2022-12-25T18:51:49.300Z,100786.84
2022-12-25T18:54:16.023Z,100782.28
2022-12-25T18:56:42.765Z,100779.78
2022-12-25T18:59:09.800Z,100772.47
2022-12-25T19:01:36.511Z,100766.22
2022-12-25T19:04:05.579Z,100765.16
2022-12-25T19:06:33.544Z,100768.09
2022-12-25T19:09:00.922Z,100753.06
2022-12-25T19:11:30.910Z,100752.25
2022-12-25T19:13:57.737Z,100750.13
2022-12-25T19:16:24.758Z,100746.19
2022-12-25T19:18:51.534Z,100750.13
2022-12-25T19:21:18.378Z,100735.97
2022-12-25T19:23:45.369Z,100742.44
2022-12-25T19:26:12.377Z,100738.00
2022-12-25T19:28:39.691Z,100743.44
2022-12-25T19:31:09.318Z,100740.53
2022-12-25T19:33:38.815Z,100733.44
2022-12-25T19:36:12.020Z,100725.69
2022-12-25T19:38:39.151Z,100719.34
2022-12-25T19:41:10.738Z,100719.81
2022-12-25T19:43:39.766Z,100719.19
2022-12-25T19:46:07.938Z,100713.97
2022-12-25T19:48:36.091Z,100707.09
2022-12-25T19:51:15.050Z,100707.09
2022-12-25T19:53:41.956Z,100698.16
2022-12-25T19:56:12.052Z,100692.94
2022-12-25T19:58:44.347Z,100696.69
2022-12-25T20:01:25.165Z,100703.34
2022-12-25T20:03:53.181Z,100696.88
2022-12-25T20:06:32.398Z,100693.31
2022-12-25T20:12:59.915Z,100672.44
2022-12-25T20:19:26.963Z,100693.28
2022-12-25T20:55:05.872Z,100697.59
2022-12-25T20:57:32.692Z,100702.19
2022-12-25T20:59:59.675Z,100707.78
2022-12-25T21:02:34.810Z,100703.63
2022-12-25T21:05:04.696Z,100696.53
2022-12-25T21:07:31.689Z,100699.03
2022-12-25T21:09:59.556Z,100684.63
2022-12-25T21:12:26.667Z,100689.81
2022-12-25T21:14:54.233Z,100683.81
2022-12-25T21:17:21.178Z,100686.53
2022-12-25T21:19:48.064Z,100695.25
2022-12-25T21:22:15.046Z,100685.00
2022-12-25T21:24:41.979Z,100688.94
2022-12-25T21:27:08.959Z,100694.31
2022-12-25T21:29:35.878Z,100701.34
2022-12-25T21:32:21.278Z,100701.16
2022-12-25T21:34:48.150Z,100703.94
2022-12-25T21:37:14.977Z,100705.63
2022-12-25T21:39:42.214Z,100702.69
2022-12-25T21:42:09.661Z,100703.13
2022-12-25T21:44:36.621Z,100695.59
2022-12-25T21:47:03.424Z,100692.81
2022-12-25T21:49:48.591Z,100688.22
2022-12-25T21:52:15.435Z,100687.31
2022-12-25T21:54:42.355Z,100688.38
2022-12-25T21:57:09.197Z,100688.44
2022-12-25T21:59:36.416Z,100682.78
2022-12-25T22:02:20.301Z,100670.03
2022-12-25T22:04:48.372Z,100671.09
2022-12-25T22:07:18.542Z,100661.94
2022-12-25T22:09:50.312Z,100660.28
2022-12-25T22:12:38.888Z,100662.41
2022-12-25T22:15:08.202Z,100667.16
2022-12-25T22:18:01.949Z,100664.91
2022-12-25T22:20:35.081Z,100659.00
2022-12-25T22:23:02.771Z,100666.78
2022-12-25T22:25:30.123Z,100663.69
2022-12-25T22:27:58.387Z,100658.47
2022-12-25T22:30:28.191Z,100662.41
2022-12-25T22:32:55.696Z,100669.94
2022-12-25T22:35:22.717Z,100671.13
2022-12-25T22:37:50.085Z,100660.50
2022-12-25T22:40:19.543Z,100658.66
2022-12-25T22:42:47.436Z,100663.44
2022-12-25T22:45:15.663Z,100665.56
2022-12-25T22:47:43.341Z,100659.53
2022-12-25T22:50:12.600Z,100665.56
2022-12-25T22:52:39.759Z,100664.06
2022-12-25T22:55:09.019Z,100662.41
2022-12-25T22:57:36.407Z,100666.78
2022-12-25T23:00:06.356Z,100671.75
2022-12-25T23:02:35.584Z,100663.53
2022-12-25T23:05:03.747Z,100675.69
2022-12-25T23:07:31.127Z,100674.72
2022-12-25T23:09:57.934Z,100681.41
2022-12-25T23:15:29.046Z,100681.84
2022-12-25T23:18:14.588Z,100673.53
2022-12-25T23:21:00.712Z,100677.31
2022-12-25T23:23:46.285Z,100668.09
2022-12-25T23:26:14.550Z,100668.56
2022-12-25T23:29:01.285Z,100672.31
2022-12-25T23:31:39.929Z,100676.94
2022-12-25T23:34:08.348Z,100678.97
2022-12-25T23:36:35.625Z,100678.41
2022-12-25T23:39:09.421Z,100674.81
2022-12-25T23:41:37.087Z,100672.09
2022-12-25T23:44:12.447Z,100667.31
2022-12-25T23:46:40.435Z,100667.16
2022-12-25T23:49:07.763Z,100672.41
2022-12-25T23:51:44.926Z,100671.31
2022-12-25T23:54:17.755Z,100650.69
2022-12-25T23:56:45.545Z,100662.41
2022-12-25T23:59:13.503Z,100665.56
